Time;durP1;ratioP1;P1;durP2;ratioP2;P2;SDS_P1;SDS_P2;PMS_P1;PMS_P2;Temp;Humidity;BMP_temperature;BMP_pressure;BME280_temperature;BME280_humidity;BME280_pressure;Samples;Min_cycle;Max_cycle;Signal;HPM_P1;HPM_P2
2021/12/16 00:09:07;;;;;;;181.60;58.33;;;;;;;;;;4911334;29;20101;-73
2021/12/16 00:35:37;;;;;;;163.13;58.00;;;;;;;;;;4902169;29;20097;-74
2021/12/16 00:38:03;;;;;;;180.63;58.03;;;;;;;;;;4904500;29;20020;-74
2021/12/16 00:40:29;;;;;;;158.65;53.72;;;;;;;;;;4902217;29;20073;-74
2021/12/16 00:43:05;;;;;;;163.98;55.42;;;;;;;;;;4904691;29;20487;-75
2021/12/16 00:45:46;;;;;;;152.55;55.50;;;;;;;;;;4903330;29;20032;-74
2021/12/16 00:55:58;;;;;;;158.93;58.92;;;;;;;;;;4900592;29;20414;-78
2021/12/16 00:58:28;;;;;;;158.27;58.80;;;;;;;;;;4913168;29;20817;-73
2021/12/16 01:01:21;;;;;;;162.50;64.47;;;;;;;;;;4910477;29;20467;-75
2021/12/16 01:04:09;;;;;;;140.88;56.95;;;;;;;;;;4909328;29;20032;-75
2021/12/16 01:34:05;;;;;;;114.10;49.90;;;;;;;;;;4865015;29;20048;-75
2021/12/16 01:50:15;;;;;;;126.38;60.00;;;;;;;;;;4815918;29;20035;-73
2021/12/16 01:57:59;;;;;;;111.68;52.97;;;;;;;;;;4826568;29;20036;-75
2021/12/16 02:00:44;;;;;;;97.53;49.08;;;;;;;;;;4830691;29;20098;-73
2021/12/16 02:03:10;;;;;;;101.82;48.00;;;;;;;;;;4821348;29;20093;-78
2021/12/16 02:06:08;;;;;;;97.20;50.42;;;;;;;;;;4828624;29;20452;-74
2021/12/16 02:08:38;;;;;;;96.15;46.65;;;;;;;;;;4860544;29;20057;-74
2021/12/16 02:37:59;;;;;;;77.22;40.65;;;;;;;;;;4862893;29;20445;-76
2021/12/16 02:40:28;;;;;;;68.18;39.50;;;;;;;;;;4885974;29;20061;-74
2021/12/16 02:42:59;;;;;;;76.55;44.22;;;;;;;;;;4882032;29;20406;-74
2021/12/16 02:48:34;;;;;;;75.78;44.25;;;;;;;;;;4886839;29;20502;-76
2021/12/16 02:51:03;;;;;;;86.88;46.80;;;;;;;;;;4898793;29;20123;-75
2021/12/16 02:53:29;;;;;;;74.97;43.60;;;;;;;;;;4906470;29;20021;-75
2021/12/16 02:55:58;;;;;;;79.30;44.90;;;;;;;;;;4907115;29;20032;-74
2021/12/16 02:58:25;;;;;;;80.47;45.83;;;;;;;;;;4907648;29;20081;-75
2021/12/16 03:01:06;;;;;;;75.45;44.65;;;;;;;;;;4901470;29;20032;-74
2021/12/16 03:03:35;;;;;;;73.85;42.10;;;;;;;;;;4892737;29;20031;-73
2021/12/16 03:06:02;;;;;;;80.25;43.50;;;;;;;;;;4900583;29;20395;-73
2021/12/16 03:08:30;;;;;;;80.07;43.78;;;;;;;;;;4902366;29;20040;-74
2021/12/16 03:11:17;;;;;;;84.88;47.40;;;;;;;;;;4906267;29;20017;-74
2021/12/16 03:16:35;;;;;;;87.63;46.95;;;;;;;;;;4901376;29;20391;-74
2021/12/16 03:19:19;;;;;;;87.55;46.55;;;;;;;;;;4904279;29;20037;-74
2021/12/16 03:21:50;;;;;;;102.05;50.38;;;;;;;;;;4902243;29;20040;-77
2021/12/16 03:32:43;;;;;;;113.65;55.10;;;;;;;;;;4867750;29;20037;-75
2021/12/16 03:38:00;;;;;;;120.70;55.40;;;;;;;;;;4863770;29;20052;-78
2021/12/16 03:40:26;;;;;;;140.35;64.30;;;;;;;;;;4863953;29;20098;-74
2021/12/16 03:42:54;;;;;;;134.43;63.08;;;;;;;;;;4857027;29;20034;-74
2021/12/16 03:48:21;;;;;;;133.00;57.85;;;;;;;;;;4858130;29;20104;-75
2021/12/16 03:50:49;;;;;;;130.02;56.90;;;;;;;;;;4862418;29;20037;-79
2021/12/16 03:53:16;;;;;;;129.63;56.70;;;;;;;;;;4862646;29;20063;-76
2021/12/16 03:55:43;;;;;;;129.65;58.03;;;;;;;;;;4861047;29;20034;-74
2021/12/16 03:58:11;;;;;;;129.77;57.70;;;;;;;;;;4850966;29;20030;-78
2021/12/16 04:00:45;;;;;;;130.50;57.80;;;;;;;;;;4876001;29;20049;-76
2021/12/16 04:03:12;;;;;;;121.47;54.90;;;;;;;;;;4870081;29;20055;-78
2021/12/16 04:05:42;;;;;;;125.30;56.38;;;;;;;;;;4864423;29;20044;-75
2021/12/16 04:08:08;;;;;;;141.68;61.50;;;;;;;;;;4902948;29;20029;-75
2021/12/16 04:10:44;;;;;;;129.93;60.85;;;;;;;;;;4904625;29;20088;-75
2021/12/16 04:13:19;;;;;;;122.72;59.45;;;;;;;;;;4906331;29;20111;-75
2021/12/16 04:15:45;;;;;;;119.78;56.13;;;;;;;;;;4902317;29;20040;-74
2021/12/16 04:18:12;;;;;;;123.15;56.38;;;;;;;;;;4901046;29;20400;-75
2021/12/16 04:20:38;;;;;;;144.68;69.45;;;;;;;;;;4905552;29;20033;-78
2021/12/16 04:23:07;;;;;;;136.10;61.67;;;;;;;;;;4905582;29;20036;-75
2021/12/16 04:25:35;;;;;;;122.50;58.17;;;;;;;;;;4904350;29;20117;-74
2021/12/16 04:28:04;;;;;;;129.93;57.88;;;;;;;;;;4907418;29;20502;-75
2021/12/16 04:30:31;;;;;;;122.38;56.78;;;;;;;;;;4904679;29;20040;-74
2021/12/16 04:32:57;;;;;;;114.95;55.08;;;;;;;;;;4898492;29;20029;-75
2021/12/16 04:35:24;;;;;;;125.30;57.25;;;;;;;;;;4899443;29;20039;-75
2021/12/16 04:37:51;;;;;;;126.43;57.22;;;;;;;;;;4898849;29;20357;-75
2021/12/16 04:40:18;;;;;;;120.78;55.47;;;;;;;;;;4899322;29;20053;-74
2021/12/16 04:42:46;;;;;;;117.53;56.63;;;;;;;;;;4899580;29;20067;-74
2021/12/16 04:45:14;;;;;;;119.82;55.55;;;;;;;;;;4895322;29;20059;-76
2021/12/16 04:47:40;;;;;;;114.20;54.63;;;;;;;;;;4900559;29;20108;-74
2021/12/16 04:50:08;;;;;;;122.00;55.42;;;;;;;;;;4899078;29;20040;-73
2021/12/16 04:52:34;;;;;;;124.00;56.80;;;;;;;;;;4892086;29;20040;-75
2021/12/16 04:55:00;;;;;;;124.45;56.70;;;;;;;;;;4899048;29;20035;-74
2021/12/16 04:57:26;;;;;;;115.60;55.55;;;;;;;;;;4898859;29;20107;-75
2021/12/16 04:59:52;;;;;;;128.85;58.92;;;;;;;;;;4899845;29;20064;-74
2021/12/16 05:02:20;;;;;;;130.07;58.10;;;;;;;;;;4900824;29;20011;-75
2021/12/16 05:04:47;;;;;;;121.63;56.28;;;;;;;;;;4900086;29;20028;-74
2021/12/16 05:07:13;;;;;;;121.05;56.42;;;;;;;;;;4897884;29;20032;-74
2021/12/16 05:12:08;;;;;;;124.75;57.33;;;;;;;;;;4903883;29;20040;-75
2021/12/16 05:14:36;;;;;;;125.85;57.38;;;;;;;;;;4909020;29;20058;-75
2021/12/16 05:17:09;;;;;;;116.55;55.55;;;;;;;;;;4899099;29;20028;-75
2021/12/16 05:19:38;;;;;;;131.65;58.22;;;;;;;;;;4898880;29;20112;-74
2021/12/16 05:24:51;;;;;;;119.32;55.67;;;;;;;;;;4898755;29;20080;-74
2021/12/16 05:27:19;;;;;;;118.20;55.03;;;;;;;;;;4899852;29;20059;-76
2021/12/16 05:29:46;;;;;;;117.68;56.15;;;;;;;;;;4905412;29;20040;-74
2021/12/16 05:32:12;;;;;;;120.53;56.30;;;;;;;;;;4904838;29;20056;-75
2021/12/16 05:34:38;;;;;;;118.65;55.97;;;;;;;;;;4904340;29;20032;-75
2021/12/16 05:37:07;;;;;;;109.22;54.75;;;;;;;;;;4903216;29;20052;-74
2021/12/16 05:39:38;;;;;;;113.97;53.50;;;;;;;;;;4902845;29;20047;-73
2021/12/16 05:42:06;;;;;;;117.57;56.08;;;;;;;;;;4909195;29;20115;-76
2021/12/16 05:44:34;;;;;;;115.43;55.67;;;;;;;;;;4904951;29;20505;-74
2021/12/16 05:47:00;;;;;;;117.10;56.10;;;;;;;;;;4900135;29;20064;-75
2021/12/16 05:49:26;;;;;;;116.35;54.38;;;;;;;;;;4902532;29;20044;-73
2021/12/16 05:51:52;;;;;;;110.75;54.28;;;;;;;;;;4900570;29;20103;-75
2021/12/16 05:54:19;;;;;;;107.13;53.08;;;;;;;;;;4900342;29;20029;-73
2021/12/16 05:56:46;;;;;;;108.68;52.25;;;;;;;;;;4905514;29;20044;-78
2021/12/16 05:59:13;;;;;;;114.50;52.13;;;;;;;;;;4901880;29;20055;-77
2021/12/16 06:01:40;;;;;;;106.63;53.70;;;;;;;;;;4906480;29;20028;-78
2021/12/16 06:04:06;;;;;;;134.48;63.67;;;;;;;;;;4909742;29;20107;-77
2021/12/16 06:06:33;;;;;;;134.15;67.78;;;;;;;;;;4903820;29;20487;-72
2021/12/16 06:08:59;;;;;;;119.07;63.08;;;;;;;;;;4888581;29;20048;-78
2021/12/16 06:11:29;;;;;;;125.93;59.65;;;;;;;;;;4903253;29;20035;-73
2021/12/16 06:27:33;;;;;;;122.75;61.33;;;;;;;;;;4902558;29;20513;-75
2021/12/16 06:29:59;;;;;;;120.88;59.50;;;;;;;;;;4908597;29;20028;-74
2021/12/16 06:32:26;;;;;;;140.15;64.63;;;;;;;;;;4911741;29;20032;-76
2021/12/16 06:34:53;;;;;;;142.90;64.43;;;;;;;;;;4908325;29;20037;-75
2021/12/16 06:37:19;;;;;;;136.95;62.28;;;;;;;;;;4909917;29;20031;-77
2021/12/16 06:39:45;;;;;;;117.20;58.08;;;;;;;;;;4910570;29;20052;-77
2021/12/16 06:42:12;;;;;;;135.48;63.13;;;;;;;;;;4908219;29;20035;-77
2021/12/16 06:44:51;;;;;;;118.22;59.13;;;;;;;;;;4907878;29;20504;-76
2021/12/16 06:47:26;;;;;;;115.90;58.22;;;;;;;;;;4907536;29;20391;-75
2021/12/16 06:49:54;;;;;;;110.03;57.03;;;;;;;;;;4908760;29;20041;-77
2021/12/16 06:52:29;;;;;;;102.28;54.70;;;;;;;;;;4911658;29;20072;-77
2021/12/16 06:55:18;;;;;;;113.60;59.42;;;;;;;;;;4907349;29;20036;-77
2021/12/16 07:08:43;;;;;;;123.20;61.13;;;;;;;;;;5357972;23;20151;-78
2021/12/16 07:11:40;;;;;;;132.20;67.30;;;;;;;;;;4874682;29;20057;-78
2021/12/16 07:14:12;;;;;;;119.45;61.40;;;;;;;;;;4858855;29;20048;-74
2021/12/16 07:16:38;;;;;;;112.78;58.85;;;;;;;;;;4849013;29;20052;-77
2021/12/16 07:19:04;;;;;;;107.30;60.72;;;;;;;;;;4844643;29;20034;-76
2021/12/16 07:21:37;;;;;;;105.35;57.03;;;;;;;;;;4850198;29;20117;-75
2021/12/16 07:24:08;;;;;;;89.35;52.85;;;;;;;;;;4842743;29;20037;-76
2021/12/16 07:27:03;;;;;;;103.07;56.35;;;;;;;;;;4863573;29;20038;-79
2021/12/16 07:32:24;;;;;;;100.80;56.35;;;;;;;;;;5628096;23;20067;-77
2021/12/16 07:45:51;;;;;;;109.72;61.72;;;;;;;;;;5605049;23;20059;-77
2021/12/16 07:48:33;;;;;;;115.97;64.38;;;;;;;;;;4923350;29;20072;-78
2021/12/16 07:51:07;;;;;;;95.82;57.35;;;;;;;;;;4956330;29;20008;-77
2021/12/16 07:53:57;;;;;;;102.88;59.70;;;;;;;;;;4946213;28;20019;-78
2021/12/16 07:56:33;;;;;;;120.35;67.03;;;;;;;;;;4931491;29;20095;-75
2021/12/16 07:58:59;;;;;;;114.63;67.18;;;;;;;;;;4936345;29;20098;-75
2021/12/16 08:01:26;;;;;;;122.15;67.68;;;;;;;;;;4933331;29;20032;-75
2021/12/16 08:03:52;;;;;;;109.78;64.10;;;;;;;;;;4925039;29;20055;-75
2021/12/16 08:06:44;;;;;;;96.32;58.20;;;;;;;;;;4943390;28;20032;-82
2021/12/16 08:09:11;;;;;;;107.88;63.08;;;;;;;;;;4923276;29;20494;-74
2021/12/16 08:11:39;;;;;;;107.63;61.47;;;;;;;;;;4940572;29;20044;-73
2021/12/16 08:14:05;;;;;;;96.07;57.85;;;;;;;;;;4935657;29;20099;-72
2021/12/16 08:16:31;;;;;;;91.10;54.50;;;;;;;;;;4944199;29;20032;-75
2021/12/16 08:19:04;;;;;;;85.20;49.78;;;;;;;;;;4936608;29;20028;-77
2021/12/16 08:21:30;;;;;;;77.50;47.13;;;;;;;;;;4920356;29;20016;-76
2021/12/16 08:24:00;;;;;;;78.43;48.20;;;;;;;;;;4930396;29;20475;-76
2021/12/16 08:26:26;;;;;;;73.40;45.35;;;;;;;;;;4920291;29;20039;-73
2021/12/16 08:28:52;;;;;;;77.50;46.35;;;;;;;;;;4918501;29;20055;-75
2021/12/16 08:31:19;;;;;;;77.05;45.92;;;;;;;;;;4911963;29;20028;-74
2021/12/16 08:33:46;;;;;;;74.60;45.00;;;;;;;;;;4911215;29;20043;-75
2021/12/16 08:36:12;;;;;;;72.75;45.30;;;;;;;;;;4912474;29;20025;-74
2021/12/16 08:38:38;;;;;;;71.43;45.47;;;;;;;;;;4910854;29;20036;-76
2021/12/16 08:41:10;;;;;;;70.50;44.83;;;;;;;;;;4910431;29;20043;-75
2021/12/16 08:43:39;;;;;;;67.80;44.40;;;;;;;;;;4910211;29;20506;-74
2021/12/16 08:46:07;;;;;;;77.70;46.85;;;;;;;;;;4917442;29;20056;-76
2021/12/16 08:48:33;;;;;;;64.25;41.85;;;;;;;;;;4911335;29;20071;-73
2021/12/16 08:50:59;;;;;;;60.58;38.88;;;;;;;;;;4913967;29;20040;-77
2021/12/16 08:53:25;;;;;;;62.58;39.58;;;;;;;;;;4916042;29;20052;-73
2021/12/16 08:55:54;;;;;;;58.60;36.65;;;;;;;;;;4893500;29;20132;-76
2021/12/16 08:58:20;;;;;;;57.58;36.35;;;;;;;;;;4909074;29;20020;-74
2021/12/16 09:00:52;;;;;;;63.63;41.15;;;;;;;;;;4908956;29;20056;-74
2021/12/16 09:03:21;;;;;;;79.15;47.95;;;;;;;;;;4911734;29;20024;-77
2021/12/16 09:05:54;;;;;;;82.93;49.13;;;;;;;;;;4924339;29;20039;-77
2021/12/16 09:08:22;;;;;;;86.35;51.47;;;;;;;;;;4923665;29;20036;-78
2021/12/16 09:10:49;;;;;;;79.20;49.35;;;;;;;;;;4902030;29;20097;-77
2021/12/16 09:13:17;;;;;;;74.93;46.80;;;;;;;;;;4906663;29;20052;-76
2021/12/16 09:15:48;;;;;;;91.70;54.50;;;;;;;;;;4893935;29;20087;-75
2021/12/16 09:18:16;;;;;;;90.00;55.88;;;;;;;;;;4912677;29;20043;-77
2021/12/16 09:20:42;;;;;;;83.65;54.58;;;;;;;;;;4912814;29;20052;-78
2021/12/16 09:23:09;;;;;;;89.68;58.33;;;;;;;;;;4899631;29;20028;-77
2021/12/16 09:25:36;;;;;;;103.32;64.93;;;;;;;;;;4913127;29;20032;-77
2021/12/16 09:28:02;;;;;;;106.07;64.00;;;;;;;;;;4915112;29;20031;-77
2021/12/16 09:30:30;;;;;;;99.50;65.10;;;;;;;;;;4907766;29;20048;-79
2021/12/16 09:33:13;;;;;;;97.25;59.28;;;;;;;;;;4929565;29;20033;-80
2021/12/16 09:38:54;;;;;;;95.57;60.70;;;;;;;;;;4889100;29;20048;-76
2021/12/16 09:41:20;;;;;;;87.85;56.78;;;;;;;;;;4890655;29;20037;-76
2021/12/16 09:43:48;;;;;;;95.53;60.17;;;;;;;;;;4896110;29;20033;-75
2021/12/16 09:46:16;;;;;;;92.53;59.85;;;;;;;;;;4835298;29;1173013;-75
2021/12/16 09:48:46;;;;;;;89.68;58.58;;;;;;;;;;4906128;29;20040;-75
2021/12/16 09:51:16;;;;;;;95.15;59.15;;;;;;;;;;4898949;29;20052;-74
2021/12/16 09:53:43;;;;;;;100.78;64.82;;;;;;;;;;4895110;29;20061;-78
2021/12/16 09:56:10;;;;;;;105.93;64.90;;;;;;;;;;4891905;29;20103;-74
2021/12/16 09:58:38;;;;;;;87.28;55.45;;;;;;;;;;4896775;29;20037;-75
2021/12/16 10:01:10;;;;;;;87.10;55.10;;;;;;;;;;4891375;29;20037;-73
2021/12/16 10:03:41;;;;;;;87.28;54.38;;;;;;;;;;4891776;29;20045;-77
2021/12/16 10:06:07;;;;;;;84.15;54.47;;;;;;;;;;4893095;29;20039;-77
2021/12/16 10:08:33;;;;;;;74.43;48.47;;;;;;;;;;4882301;29;20045;-77
2021/12/16 10:10:59;;;;;;;65.70;45.58;;;;;;;;;;4916748;29;20100;-78
2021/12/16 10:13:58;;;;;;;61.60;40.22;;;;;;;;;;4919663;29;20065;-78
2021/12/16 10:19:26;;;;;;;61.42;40.55;;;;;;;;;;4928509;29;20048;-78
2021/12/16 10:22:16;;;;;;;61.42;40.63;;;;;;;;;;4910321;29;20040;-77
2021/12/16 10:25:14;;;;;;;70.03;43.47;;;;;;;;;;4935557;29;20038;-77
2021/12/16 10:33:58;;;;;;;79.68;49.13;;;;;;;;;;4929903;28;20026;-79
2021/12/16 10:36:45;;;;;;;82.43;51.08;;;;;;;;;;4930508;29;20037;-78
2021/12/16 10:39:11;;;;;;;79.45;49.05;;;;;;;;;;4911473;29;20392;-78
2021/12/16 10:44:17;;;;;;;97.53;58.03;;;;;;;;;;5834208;23;20082;-75
2021/12/16 10:47:10;;;;;;;241.15;130.02;;;;;;;;;;4948389;29;20059;-78
2021/12/16 10:49:43;;;;;;;117.40;71.55;;;;;;;;;;4953970;29;20043;-79
2021/12/16 10:52:14;;;;;;;81.82;51.63;;;;;;;;;;5070661;23;20018;-78
2021/12/16 11:02:34;;;;;;;77.38;52.10;;;;;;;;;;4942196;23;20083;-75
2021/12/16 11:05:05;;;;;;;77.53;51.13;;;;;;;;;;4925441;29;20047;-75
2021/12/16 11:07:33;;;;;;;86.13;54.83;;;;;;;;;;4917880;29;20116;-76
2021/12/16 11:10:11;;;;;;;83.18;54.78;;;;;;;;;;4902216;29;20103;-76
2021/12/16 11:17:54;;;;;;;85.90;56.67;;;;;;;;;;5250548;23;20063;-78
2021/12/16 11:20:32;;;;;;;82.15;55.63;;;;;;;;;;4918884;29;20008;-78
2021/12/16 11:23:04;;;;;;;79.90;52.22;;;;;;;;;;4911742;29;20028;-76
2021/12/16 11:25:32;;;;;;;82.65;54.38;;;;;;;;;;4912251;29;20500;-76
2021/12/16 11:28:17;;;;;;;85.03;57.13;;;;;;;;;;4927741;29;20037;-79
2021/12/16 11:31:08;;;;;;;84.25;54.88;;;;;;;;;;4921332;29;20052;-79
2021/12/16 11:36:10;;;;;;;85.32;54.50;;;;;;;;;;5581992;23;20064;-76
2021/12/16 11:38:45;;;;;;;84.15;54.60;;;;;;;;;;4920427;29;20087;-77
2021/12/16 11:41:17;;;;;;;84.20;55.03;;;;;;;;;;4923772;29;20032;-77
2021/12/16 11:43:46;;;;;;;82.30;54.58;;;;;;;;;;4907181;29;20032;-76
2021/12/16 11:46:44;;;;;;;83.97;55.35;;;;;;;;;;4927672;29;20160;-79
2021/12/16 11:49:29;;;;;;;86.43;54.45;;;;;;;;;;4952517;29;20043;-78
2021/12/16 11:54:38;;;;;;;116.65;71.93;;;;;;;;;;5667918;23;20007;-79
2021/12/16 12:02:52;;;;;;;92.13;58.00;;;;;;;;;;5051627;23;20098;-78
2021/12/16 12:08:24;;;;;;;84.85;54.30;;;;;;;;;;4955061;28;20070;-78
2021/12/16 12:13:48;;;;;;;87.75;55.83;;;;;;;;;;5139011;23;20524;-80
2021/12/16 12:16:35;;;;;;;95.40;58.25;;;;;;;;;;4924970;29;20044;-77
2021/12/16 12:19:12;;;;;;;98.13;61.13;;;;;;;;;;4930728;29;20028;-78
2021/12/16 12:21:42;;;;;;;100.95;60.67;;;;;;;;;;4927253;29;20024;-78
2021/12/16 12:24:11;;;;;;;115.03;69.15;;;;;;;;;;4922972;29;20055;-78
2021/12/16 12:26:42;;;;;;;120.35;75.10;;;;;;;;;;4922419;29;20031;-79
2021/12/16 12:29:17;;;;;;;110.57;68.45;;;;;;;;;;4938669;29;20048;-78
2021/12/16 12:31:52;;;;;;;111.93;66.60;;;;;;;;;;4916128;29;20398;-79
2021/12/16 12:34:26;;;;;;;114.60;63.80;;;;;;;;;;4918271;29;20045;-79
2021/12/16 12:37:28;;;;;;;113.47;65.53;;;;;;;;;;4956460;28;20036;-79
2021/12/16 12:40:21;;;;;;;114.13;67.60;;;;;;;;;;4924058;29;20026;-79
2021/12/16 12:42:49;;;;;;;108.53;61.90;;;;;;;;;;4904411;29;20468;-77
2021/12/16 12:45:19;;;;;;;101.78;61.53;;;;;;;;;;4885338;29;20051;-77
2021/12/16 12:47:46;;;;;;;107.50;62.65;;;;;;;;;;4908307;29;20028;-76
2021/12/16 12:50:55;;;;;;;108.35;64.30;;;;;;;;;;4917521;29;20044;-78
2021/12/16 12:53:29;;;;;;;100.18;60.75;;;;;;;;;;4823169;29;20034;-78
2021/12/16 12:56:25;;;;;;;112.07;66.13;;;;;;;;;;4819804;29;20087;-78
2021/12/16 12:58:58;;;;;;;116.07;66.22;;;;;;;;;;4840973;29;20047;-78
2021/12/16 13:01:59;;;;;;;148.95;84.03;;;;;;;;;;4808116;29;20064;-78
2021/12/16 13:05:06;;;;;;;157.70;86.45;;;;;;;;;;4820684;29;20045;-77
2021/12/16 13:07:34;;;;;;;158.73;88.03;;;;;;;;;;4810423;29;20042;-77
2021/12/16 13:13:15;;;;;;;124.63;73.95;;;;;;;;;;5008394;23;20055;-79
2021/12/16 13:32:54;;;;;;;402.02;277.15;;;;;;;;;;5780687;23;20090;-78
2021/12/16 13:38:11;;;;;;;191.25;127.03;;;;;;;;;;4949509;29;20034;-78
2021/12/16 13:40:50;;;;;;;123.85;75.88;;;;;;;;;;4945093;29;20056;-76
2021/12/16 13:43:20;;;;;;;203.02;154.02;;;;;;;;;;4941849;29;20035;-76
2021/12/16 13:46:02;;;;;;;549.88;486.67;;;;;;;;;;4933819;29;20114;-77
2021/12/16 14:03:18;;;;;;;256.83;174.40;;;;;;;;;;4953331;28;20036;-79
2021/12/16 14:06:12;;;;;;;284.42;195.90;;;;;;;;;;4918478;29;20039;-75
2021/12/16 14:08:38;;;;;;;;;;;;;;;;;;4935642;29;20115;-77
2021/12/16 14:11:30;;;;;;;173.00;105.65;;;;;;;;;;4919269;29;19946;-77
2021/12/16 14:25:25;;;;;;;423.70;302.45;;;;;;;;;;4881015;29;20047;-77
2021/12/16 14:32:05;;;;;;;213.40;137.30;;;;;;;;;;4883759;29;20056;-79
2021/12/16 14:37:16;;;;;;;429.23;307.60;;;;;;;;;;4847250;29;20045;-77
2021/12/16 14:45:18;;;;;;;304.20;212.52;;;;;;;;;;4918050;29;20029;-75
2021/12/16 14:47:57;;;;;;;236.65;155.63;;;;;;;;;;4918041;29;20028;-76
2021/12/16 14:50:36;;;;;;;214.68;133.35;;;;;;;;;;4916630;29;20036;-76
2021/12/16 14:53:11;;;;;;;262.95;168.18;;;;;;;;;;4918097;29;20080;-75
2021/12/16 14:55:38;;;;;;;304.63;190.45;;;;;;;;;;4917969;29;20043;-76
2021/12/16 14:58:05;;;;;;;273.45;177.90;;;;;;;;;;4916157;29;20157;-75
2021/12/16 15:00:42;;;;;;;312.33;201.70;;;;;;;;;;4919082;29;20493;-75
2021/12/16 15:03:14;;;;;;;224.73;133.80;;;;;;;;;;4917726;29;20051;-76
2021/12/16 15:05:49;;;;;;;228.07;138.05;;;;;;;;;;4922983;29;20106;-75
2021/12/16 15:08:23;;;;;;;217.38;133.18;;;;;;;;;;4921046;29;20418;-75
2021/12/16 15:10:50;;;;;;;213.18;126.35;;;;;;;;;;4916637;29;20122;-76
2021/12/16 15:13:25;;;;;;;275.35;166.48;;;;;;;;;;4915810;29;21711;-77
2021/12/16 15:39:09;;;;;;;193.98;120.03;;;;;;;;;;4818185;29;20074;-78
2021/12/16 15:44:23;;;;;;;166.73;101.82;;;;;;;;;;4846196;29;20137;-78
2021/12/16 15:46:57;;;;;;;183.95;119.18;;;;;;;;;;4836749;29;20018;-78
2021/12/16 15:49:37;;;;;;;186.27;117.78;;;;;;;;;;4842403;29;20041;-78
2021/12/16 15:52:32;;;;;;;188.23;115.97;;;;;;;;;;4822532;29;20039;-80
2021/12/16 15:54:59;;;;;;;129.10;78.78;;;;;;;;;;4843737;29;20057;-78
2021/12/16 15:57:31;;;;;;;182.13;113.47;;;;;;;;;;4857879;29;20045;-79
2021/12/16 16:00:12;;;;;;;159.30;98.80;;;;;;;;;;4855784;29;20045;-80
2021/12/16 16:02:39;;;;;;;228.02;143.15;;;;;;;;;;4855817;29;20068;-79
2021/12/16 16:05:20;;;;;;;247.27;156.15;;;;;;;;;;4860106;29;20040;-79
2021/12/16 16:07:47;;;;;;;355.40;205.85;;;;;;;;;;4856910;29;20064;-79
2021/12/16 16:10:35;;;;;;;358.08;191.32;;;;;;;;;;4910583;29;20044;-79
2021/12/16 16:13:14;;;;;;;391.40;223.13;;;;;;;;;;4933508;29;20029;-79
2021/12/16 16:16:03;;;;;;;179.50;105.05;;;;;;;;;;4932793;29;20060;-80
2021/12/16 16:23:40;;;;;;;268.52;174.85;;;;;;;;;;4925279;29;20147;-78
2021/12/16 16:31:21;;;;;;;197.35;115.93;;;;;;;;;;5038712;23;20084;-77
2021/12/16 16:33:47;;;;;;;207.05;122.63;;;;;;;;;;4922794;29;20050;-78
2021/12/16 16:36:37;;;;;;;178.02;108.00;;;;;;;;;;4914856;29;20028;-76
2021/12/16 16:39:35;;;;;;;183.70;112.65;;;;;;;;;;4944736;29;20032;-79
2021/12/16 16:42:28;;;;;;;185.50;108.78;;;;;;;;;;4927445;29;20052;-79
2021/12/16 16:45:21;;;;;;;179.02;104.72;;;;;;;;;;4949439;28;20087;-79
2021/12/16 16:47:53;;;;;;;158.90;95.05;;;;;;;;;;4939589;29;20027;-74
2021/12/16 16:50:20;;;;;;;142.38;81.45;;;;;;;;;;4935851;29;20031;-77
2021/12/16 16:52:48;;;;;;;126.05;77.28;;;;;;;;;;4934914;29;20028;-75
2021/12/16 16:55:22;;;;;;;162.65;94.97;;;;;;;;;;4916583;29;20995;-74
2021/12/16 16:57:56;;;;;;;166.98;101.43;;;;;;;;;;4917091;29;20054;-74
2021/12/16 17:00:29;;;;;;;183.00;109.30;;;;;;;;;;4917075;29;20150;-74
2021/12/16 17:02:59;;;;;;;147.23;87.60;;;;;;;;;;4916355;29;20401;-75
2021/12/16 17:05:41;;;;;;;153.75;91.88;;;;;;;;;;4913708;29;20028;-74
2021/12/16 17:08:10;;;;;;;125.18;73.90;;;;;;;;;;4932974;29;20024;-75
2021/12/16 17:10:39;;;;;;;112.68;61.97;;;;;;;;;;4917553;29;20498;-74
2021/12/16 17:13:08;;;;;;;113.20;62.33;;;;;;;;;;4916744;29;20057;-75
2021/12/16 17:18:25;;;;;;;129.05;69.03;;;;;;;;;;4933966;29;20019;-75
2021/12/16 17:20:52;;;;;;;201.98;125.13;;;;;;;;;;4933854;29;20475;-75
2021/12/16 17:23:19;;;;;;;210.63;130.15;;;;;;;;;;4934285;29;20038;-74
2021/12/16 17:25:45;;;;;;;143.50;79.07;;;;;;;;;;4933824;29;20119;-75
2021/12/16 17:28:13;;;;;;;118.32;69.90;;;;;;;;;;4916622;29;20043;-74
2021/12/16 17:30:45;;;;;;;127.40;73.57;;;;;;;;;;4948361;28;20059;-76
2021/12/16 17:33:21;;;;;;;126.85;72.22;;;;;;;;;;4931666;29;20114;-77
2021/12/16 17:36:06;;;;;;;118.55;66.88;;;;;;;;;;4945391;29;20090;-76
2021/12/16 17:38:32;;;;;;;109.38;62.55;;;;;;;;;;4935356;29;20034;-77
2021/12/16 17:40:58;;;;;;;120.30;69.63;;;;;;;;;;4919878;29;20043;-75
2021/12/16 17:43:31;;;;;;;107.15;63.45;;;;;;;;;;4929750;29;20039;-77
2021/12/16 17:54:23;;;;;;;92.38;55.30;;;;;;;;;;5122975;23;20043;-80
2021/12/16 17:57:02;;;;;;;120.28;67.93;;;;;;;;;;4943270;28;20027;-79
2021/12/16 17:59:46;;;;;;;111.63;63.42;;;;;;;;;;4939426;28;20046;-79
2021/12/16 18:02:17;;;;;;;108.10;65.18;;;;;;;;;;4938255;29;20028;-76
2021/12/16 18:04:47;;;;;;;122.43;67.55;;;;;;;;;;4935930;29;20036;-77
2021/12/16 18:07:42;;;;;;;117.50;70.30;;;;;;;;;;4941463;29;20056;-79
2021/12/16 18:10:34;;;;;;;126.85;71.18;;;;;;;;;;4938674;29;20032;-79
2021/12/16 18:13:01;;;;;;;113.40;64.38;;;;;;;;;;4936384;29;20028;-76
2021/12/16 18:15:29;;;;;;;103.53;62.17;;;;;;;;;;4934244;29;20029;-76
2021/12/16 18:18:12;;;;;;;101.75;62.20;;;;;;;;;;4929229;29;20040;-76
2021/12/16 18:36:36;;;;;;;119.35;69.03;;;;;;;;;;5327067;23;20055;-78
2021/12/16 18:39:08;;;;;;;115.88;64.97;;;;;;;;;;4941780;29;20024;-80
2021/12/16 18:41:38;;;;;;;121.00;67.20;;;;;;;;;;4953230;29;20020;-78
2021/12/16 18:44:09;;;;;;;121.45;65.30;;;;;;;;;;4942540;29;20036;-76
2021/12/16 18:46:35;;;;;;;100.78;57.35;;;;;;;;;;4941767;29;20070;-77
2021/12/16 18:49:14;;;;;;;93.88;55.97;;;;;;;;;;4937546;29;20034;-77
2021/12/16 18:52:09;;;;;;;99.00;55.42;;;;;;;;;;4936645;29;20493;-76
2021/12/16 18:54:34;;;;;;;102.60;57.30;;;;;;;;;;4939139;29;20126;-76
2021/12/16 18:57:04;;;;;;;100.43;57.92;;;;;;;;;;4941480;29;20385;-76
2021/12/16 19:05:01;;;;;;;103.55;58.92;;;;;;;;;;5579412;23;20085;-80
2021/12/16 19:07:30;;;;;;;102.00;59.10;;;;;;;;;;4921945;29;20064;-76
2021/12/16 19:09:58;;;;;;;109.05;62.67;;;;;;;;;;4917726;29;20039;-76
2021/12/16 19:12:26;;;;;;;115.32;65.70;;;;;;;;;;4918254;29;20032;-77
2021/12/16 19:14:57;;;;;;;125.47;68.90;;;;;;;;;;4918073;29;20031;-75
2021/12/16 19:17:24;;;;;;;136.80;77.18;;;;;;;;;;4913506;29;20040;-76
2021/12/16 19:20:02;;;;;;;147.60;78.32;;;;;;;;;;4923673;29;20024;-79
2021/12/16 19:22:48;;;;;;;132.43;71.93;;;;;;;;;;4927806;28;20016;-80
2021/12/16 19:25:52;;;;;;;139.95;73.90;;;;;;;;;;4930640;29;20012;-80
2021/12/16 19:28:36;;;;;;;144.60;80.18;;;;;;;;;;4910841;29;20132;-76
2021/12/16 19:31:05;;;;;;;119.07;65.05;;;;;;;;;;4913859;29;20128;-71
2021/12/16 19:33:33;;;;;;;138.40;73.70;;;;;;;;;;4913390;29;20084;-75
2021/12/16 19:35:59;;;;;;;131.32;72.47;;;;;;;;;;4911090;29;20036;-71
2021/12/16 19:38:26;;;;;;;143.55;79.63;;;;;;;;;;4916388;29;20036;-74
2021/12/16 19:41:12;;;;;;;153.57;81.30;;;;;;;;;;4924029;28;20064;-79
2021/12/16 19:43:39;;;;;;;148.13;82.45;;;;;;;;;;4894059;29;20407;-76
2021/12/16 19:46:05;;;;;;;152.70;78.13;;;;;;;;;;4910905;29;20037;-77
2021/12/16 19:48:31;;;;;;;123.45;69.05;;;;;;;;;;4914179;29;20111;-77
2021/12/16 19:50:59;;;;;;;139.80;74.57;;;;;;;;;;4900344;29;20047;-75
2021/12/16 19:53:25;;;;;;;128.00;72.25;;;;;;;;;;4917512;29;20035;-76
2021/12/16 19:55:52;;;;;;;143.35;79.68;;;;;;;;;;4917320;29;20087;-77
2021/12/16 19:58:19;;;;;;;142.98;77.78;;;;;;;;;;4918107;29;20028;-77
2021/12/16 20:00:57;;;;;;;103.15;62.35;;;;;;;;;;4948133;28;20020;-79
2021/12/16 20:03:32;;;;;;;131.70;72.88;;;;;;;;;;4919748;28;20024;-79
2021/12/16 20:06:03;;;;;;;122.88;71.03;;;;;;;;;;4934055;29;20044;-77
2021/12/16 20:08:55;;;;;;;130.38;69.85;;;;;;;;;;4904253;29;20037;-78
2021/12/16 20:11:24;;;;;;;155.10;87.65;;;;;;;;;;4916090;29;20075;-76
2021/12/16 20:13:51;;;;;;;178.80;103.43;;;;;;;;;;4927457;29;20127;-76
2021/12/16 20:16:19;;;;;;;127.60;71.07;;;;;;;;;;4941214;29;20016;-78
2021/12/16 20:18:49;;;;;;;172.80;103.57;;;;;;;;;;4925096;29;20052;-77
2021/12/16 20:21:21;;;;;;;125.53;67.10;;;;;;;;;;4924063;29;20108;-77
2021/12/16 20:23:48;;;;;;;123.70;70.40;;;;;;;;;;4924416;29;20031;-76
2021/12/16 20:26:23;;;;;;;129.50;73.82;;;;;;;;;;4925109;29;20263;-78
2021/12/16 20:28:57;;;;;;;115.10;65.65;;;;;;;;;;4924637;29;20085;-76